createdAt,value
2017-10-21T00:00:18.640Z,0.00
2017-10-21T00:01:19.087Z,0.00
2017-10-21T00:02:19.508Z,0.00
2017-10-21T00:03:19.956Z,0.00
2017-10-21T00:04:20.360Z,0.00
2017-10-21T00:05:20.819Z,0.00
2017-10-21T00:06:21.278Z,0.00
2017-10-21T00:07:21.687Z,0.00
2017-10-21T00:08:22.101Z,0.00
2017-10-21T00:09:22.530Z,0.00
2017-10-21T00:10:22.948Z,0.00
2017-10-21T00:11:23.383Z,0.00
2017-10-21T00:12:23.811Z,0.00
2017-10-21T00:13:24.238Z,0.00
2017-10-21T00:14:24.664Z,0.00
2017-10-21T00:15:25.109Z,0.00
2017-10-21T00:16:25.534Z,0.00
2017-10-21T00:17:25.962Z,0.00
2017-10-21T00:18:26.392Z,0.00
2017-10-21T00:19:26.821Z,0.00
2017-10-21T00:20:27.255Z,0.00
2017-10-21T00:21:27.682Z,0.00
2017-10-21T00:22:28.114Z,0.00
2017-10-21T00:23:28.551Z,0.00
2017-10-21T00:24:28.978Z,0.00
2017-10-21T00:25:29.410Z,0.00
2017-10-21T00:26:29.838Z,0.00
2017-10-21T00:27:30.276Z,0.00
2017-10-21T00:28:30.695Z,0.00
2017-10-21T00:29:31.129Z,0.00
2017-10-21T00:30:31.556Z,0.00
2017-10-21T00:31:31.986Z,0.00
2017-10-21T00:32:32.426Z,0.00
2017-10-21T00:33:32.849Z,0.00
2017-10-21T00:34:33.282Z,0.00
2017-10-21T00:35:33.711Z,0.00
2017-10-21T00:36:34.140Z,0.00
2017-10-21T00:37:34.578Z,0.00
2017-10-21T00:38:35.000Z,0.00
2017-10-21T00:39:35.439Z,0.00
2017-10-21T00:40:35.862Z,0.00
2017-10-21T00:41:36.293Z,0.00
2017-10-21T00:42:36.723Z,0.00
2017-10-21T00:43:37.160Z,0.00
2017-10-21T00:44:37.585Z,0.00
2017-10-21T00:45:38.016Z,0.00
2017-10-21T00:46:38.445Z,0.00
2017-10-21T00:47:38.877Z,0.00
2017-10-21T00:48:39.309Z,0.00
2017-10-21T00:49:39.736Z,0.00
2017-10-21T00:50:40.166Z,0.00
2017-10-21T00:51:40.598Z,0.00
2017-10-21T00:52:41.026Z,0.00
2017-10-21T00:53:41.460Z,0.00
2017-10-21T00:54:41.892Z,0.00
2017-10-21T00:55:42.321Z,0.00
2017-10-21T00:56:42.752Z,0.00
2017-10-21T00:57:43.183Z,0.00
2017-10-21T00:58:43.610Z,0.00
2017-10-21T00:59:44.040Z,0.00
2017-10-21T01:00:44.474Z,0.00
2017-10-21T01:01:44.908Z,0.00
2017-10-21T01:02:45.341Z,0.00
2017-10-21T01:03:45.767Z,0.00
2017-10-21T01:04:46.192Z,0.00
2017-10-21T01:05:46.626Z,0.00
2017-10-21T01:06:47.053Z,0.00
2017-10-21T01:07:47.497Z,0.00
2017-10-21T01:08:47.918Z,0.00
2017-10-21T01:09:48.348Z,0.00
2017-10-21T01:10:48.783Z,0.00
2017-10-21T01:11:49.207Z,0.00
2017-10-21T01:12:49.637Z,0.00
2017-10-21T01:13:50.072Z,0.00
2017-10-21T01:14:50.501Z,0.00
2017-10-21T01:15:50.933Z,0.00
2017-10-21T01:16:51.361Z,0.00
2017-10-21T01:17:51.795Z,0.00
2017-10-21T01:18:52.226Z,0.00
2017-10-21T01:19:52.654Z,0.00
2017-10-21T01:20:53.084Z,0.00
2017-10-21T01:21:53.539Z,0.00
2017-10-21T01:22:53.946Z,0.00
2017-10-21T01:23:54.376Z,0.00
2017-10-21T01:24:54.810Z,0.00
2017-10-21T01:25:55.233Z,0.00
2017-10-21T01:26:55.660Z,0.00
2017-10-21T01:27:56.093Z,0.00
2017-10-21T01:28:56.522Z,0.00
2017-10-21T01:29:56.963Z,0.00
2017-10-21T01:30:57.386Z,0.00
2017-10-21T01:31:57.816Z,0.00
2017-10-21T01:32:58.243Z,0.00
2017-10-21T01:33:58.673Z,0.00
2017-10-21T01:34:59.102Z,0.00
2017-10-21T01:35:59.533Z,0.00
2017-10-21T01:36:59.964Z,0.00
2017-10-21T01:38:00.396Z,0.00
2017-10-21T01:39:00.825Z,0.00
2017-10-21T01:40:01.256Z,0.00
2017-10-21T01:41:01.683Z,0.00
2017-10-21T01:42:02.117Z,0.00
2017-10-21T01:43:02.547Z,0.00
2017-10-21T01:44:02.975Z,0.00
2017-10-21T01:45:03.405Z,0.00
2017-10-21T01:46:03.835Z,0.00
2017-10-21T01:47:04.264Z,0.00
2017-10-21T01:48:04.696Z,0.00
2017-10-21T01:49:05.121Z,0.00
2017-10-21T01:50:05.551Z,0.00
2017-10-21T01:51:05.983Z,0.00
2017-10-21T01:52:06.420Z,0.00
2017-10-21T01:53:06.843Z,0.00
2017-10-21T01:54:07.271Z,0.00
2017-10-21T01:55:07.697Z,0.00
2017-10-21T01:56:08.135Z,0.00
2017-10-21T01:57:08.566Z,0.00
2017-10-21T01:58:09.007Z,0.00
2017-10-21T01:59:09.424Z,0.00
2017-10-21T02:00:09.871Z,0.00
2017-10-21T02:01:10.284Z,0.00
2017-10-21T02:02:10.709Z,0.00
2017-10-21T02:03:11.145Z,0.00
2017-10-21T02:04:11.569Z,0.00
2017-10-21T02:05:11.998Z,0.00
2017-10-21T02:06:12.436Z,0.00
2017-10-21T02:07:12.862Z,0.00
2017-10-21T02:08:13.295Z,0.00
2017-10-21T02:09:13.723Z,0.00
2017-10-21T02:10:14.159Z,0.00
2017-10-21T02:11:14.584Z,0.00
2017-10-21T02:12:15.013Z,0.00
2017-10-21T02:13:15.457Z,0.00
2017-10-21T02:14:15.878Z,0.00
2017-10-21T02:15:16.302Z,0.00
2017-10-21T02:16:16.748Z,0.00
2017-10-21T02:17:17.159Z,0.00
2017-10-21T02:18:17.594Z,0.00
2017-10-21T02:19:18.034Z,0.00
2017-10-21T02:20:18.453Z,0.00
2017-10-21T02:21:18.887Z,0.00
2017-10-21T02:22:19.326Z,0.00
2017-10-21T02:23:19.746Z,0.00
2017-10-21T02:24:20.172Z,0.00
2017-10-21T02:25:20.608Z,0.00
2017-10-21T02:26:21.054Z,0.00
2017-10-21T02:27:21.465Z,0.00
2017-10-21T02:28:21.891Z,0.00
2017-10-21T02:29:22.324Z,0.00
2017-10-21T02:30:22.772Z,0.00
2017-10-21T02:31:23.184Z,0.00
2017-10-21T02:32:23.610Z,0.00
2017-10-21T02:33:24.042Z,0.00
2017-10-21T02:34:24.473Z,0.00
2017-10-21T02:35:24.907Z,0.00
2017-10-21T02:36:25.341Z,0.00
2017-10-21T02:37:25.763Z,0.00
2017-10-21T02:38:26.196Z,0.00
2017-10-21T02:39:26.621Z,0.00
2017-10-21T02:40:27.053Z,0.00
2017-10-21T02:41:27.487Z,0.00
2017-10-21T02:42:27.920Z,0.00
2017-10-21T02:43:28.342Z,0.00
2017-10-21T02:44:28.772Z,0.00
2017-10-21T02:45:29.206Z,0.00
2017-10-21T02:46:29.636Z,0.00
2017-10-21T02:47:30.067Z,0.00
2017-10-21T02:48:30.498Z,0.00
2017-10-21T02:49:30.927Z,0.00
2017-10-21T02:50:31.351Z,0.00
2017-10-21T02:51:31.787Z,0.00
2017-10-21T02:52:32.237Z,0.00
2017-10-21T02:53:32.653Z,0.00
2017-10-21T02:54:33.077Z,0.00
2017-10-21T02:55:33.502Z,0.00
2017-10-21T02:56:33.933Z,0.00
2017-10-21T02:57:34.367Z,0.00
2017-10-21T02:58:34.794Z,0.00
2017-10-21T02:59:35.229Z,0.00
2017-10-21T03:00:35.655Z,0.00
2017-10-21T03:01:36.084Z,0.00
2017-10-21T03:02:36.516Z,0.00
2017-10-21T03:03:36.947Z,0.00
2017-10-21T03:04:37.376Z,0.00
2017-10-21T03:05:37.802Z,0.00
2017-10-21T03:06:38.233Z,0.00
2017-10-21T03:07:38.669Z,0.00
2017-10-21T03:08:39.095Z,0.00
2017-10-21T03:09:39.524Z,0.00
2017-10-21T03:10:39.954Z,0.00
2017-10-21T03:11:40.386Z,0.00
2017-10-21T03:12:40.810Z,0.00
2017-10-21T03:13:41.244Z,0.00
2017-10-21T03:14:41.675Z,0.00
2017-10-21T03:15:42.102Z,0.00
2017-10-21T03:16:42.536Z,0.00
2017-10-21T03:17:42.969Z,0.00
2017-10-21T03:18:43.392Z,0.00
2017-10-21T03:19:43.826Z,0.00
2017-10-21T03:20:44.263Z,0.00
2017-10-21T03:21:44.692Z,0.00
2017-10-21T03:22:45.114Z,0.00
2017-10-21T03:23:45.545Z,0.00
2017-10-21T03:24:45.973Z,0.00
2017-10-21T03:25:46.401Z,0.00
2017-10-21T03:26:46.831Z,0.00
2017-10-21T03:27:47.260Z,0.00
2017-10-21T03:28:47.695Z,0.00
2017-10-21T03:29:48.127Z,0.00
2017-10-21T03:30:48.560Z,0.00
2017-10-21T03:31:48.982Z,0.00
2017-10-21T03:32:49.410Z,0.00
2017-10-21T03:33:49.842Z,0.00
2017-10-21T03:34:50.276Z,0.00
2017-10-21T03:35:50.704Z,0.00
2017-10-21T03:36:51.133Z,0.00
2017-10-21T03:37:51.564Z,0.00
2017-10-21T03:38:51.991Z,0.00
2017-10-21T03:39:52.426Z,0.00
2017-10-21T03:40:52.848Z,0.00
2017-10-21T03:41:53.277Z,0.00
2017-10-21T03:42:53.727Z,0.00
2017-10-21T03:43:54.142Z,0.00
2017-10-21T03:44:54.573Z,0.00
2017-10-21T03:45:55.001Z,0.00
2017-10-21T03:46:55.422Z,0.00
2017-10-21T03:47:55.871Z,0.00
2017-10-21T03:48:56.286Z,0.00
2017-10-21T03:49:56.723Z,0.00
2017-10-21T03:50:57.143Z,0.00
2017-10-21T03:51:57.572Z,0.00
2017-10-21T03:52:58.020Z,0.00
2017-10-21T03:53:58.432Z,0.00
2017-10-21T03:54:58.873Z,0.00
2017-10-21T03:55:59.293Z,0.00
2017-10-21T03:56:59.715Z,0.00
2017-10-21T03:58:00.160Z,0.00
2017-10-21T03:59:00.581Z,0.00
2017-10-21T04:00:01.011Z,0.00
2017-10-21T04:01:01.443Z,0.00
2017-10-21T04:02:01.871Z,0.00
2017-10-21T04:03:02.298Z,0.00
2017-10-21T04:04:02.732Z,0.00
2017-10-21T04:05:03.155Z,0.00
2017-10-21T04:06:03.582Z,0.00
2017-10-21T04:07:04.016Z,0.00
2017-10-21T04:08:04.453Z,0.00
2017-10-21T04:09:04.874Z,0.00
2017-10-21T04:10:05.309Z,0.00
2017-10-21T04:11:05.732Z,0.00
2017-10-21T04:12:06.166Z,0.00
2017-10-21T04:13:06.591Z,0.00
2017-10-21T04:14:07.024Z,0.00
2017-10-21T04:15:07.453Z,0.00
2017-10-21T04:16:07.885Z,0.00
2017-10-21T04:17:08.313Z,0.00
2017-10-21T04:18:08.738Z,0.00
2017-10-21T04:19:09.175Z,0.00
2017-10-21T04:20:09.599Z,0.00
2017-10-21T04:21:10.029Z,0.00
2017-10-21T04:22:10.460Z,0.00
2017-10-21T04:23:10.884Z,0.00
2017-10-21T04:24:11.354Z,0.00
2017-10-21T04:25:11.747Z,0.00
2017-10-21T04:26:12.202Z,0.00
2017-10-21T04:27:12.608Z,0.00
2017-10-21T04:28:13.038Z,0.00
2017-10-21T04:29:13.462Z,0.00
2017-10-21T04:30:13.895Z,0.00
2017-10-21T04:31:14.326Z,0.00
2017-10-21T04:32:14.754Z,0.00
2017-10-21T04:33:15.189Z,0.00
2017-10-21T04:34:15.621Z,0.00
2017-10-21T04:35:16.039Z,0.00
2017-10-21T04:36:16.482Z,0.00
2017-10-21T04:37:16.916Z,0.00
2017-10-21T04:38:17.337Z,0.00
2017-10-21T04:39:17.770Z,0.00
2017-10-21T04:40:18.202Z,0.00
2017-10-21T04:41:18.620Z,0.00
2017-10-21T04:42:19.062Z,0.00
2017-10-21T04:43:19.478Z,0.00
2017-10-21T04:44:19.906Z,0.00
2017-10-21T04:45:20.341Z,0.00
2017-10-21T04:46:20.769Z,0.00
2017-10-21T04:47:21.199Z,0.00
2017-10-21T04:48:21.630Z,0.00
2017-10-21T04:49:22.057Z,0.00
2017-10-21T04:50:22.489Z,0.00
2017-10-21T04:51:22.924Z,0.00
2017-10-21T04:52:23.355Z,0.00
2017-10-21T04:53:23.780Z,0.00
2017-10-21T04:54:24.222Z,0.00
2017-10-21T04:55:24.640Z,0.00
2017-10-21T04:56:25.066Z,0.00
2017-10-21T04:57:25.504Z,0.00
2017-10-21T04:58:25.927Z,0.00
2017-10-21T04:59:26.353Z,0.00
2017-10-21T05:00:26.784Z,0.00
2017-10-21T05:01:27.216Z,0.00
2017-10-21T05:02:27.648Z,0.00
2017-10-21T05:03:28.075Z,0.00
2017-10-21T05:04:28.505Z,0.00
2017-10-21T05:05:28.949Z,0.00
2017-10-21T05:06:29.367Z,0.00
2017-10-21T05:07:29.799Z,0.00
2017-10-21T05:08:30.219Z,0.00
2017-10-21T05:09:30.649Z,0.00
2017-10-21T05:10:31.081Z,0.00
2017-10-21T05:11:31.508Z,0.00
2017-10-21T05:12:31.939Z,0.00
2017-10-21T05:13:32.377Z,0.00
2017-10-21T05:14:32.797Z,0.00
2017-10-21T05:15:33.242Z,0.00
2017-10-21T05:16:33.659Z,0.00
2017-10-21T05:17:34.087Z,0.00
2017-10-21T05:18:34.516Z,0.00
2017-10-21T05:19:34.945Z,0.00
2017-10-21T05:20:35.380Z,0.00
2017-10-21T05:21:35.809Z,0.00
2017-10-21T05:22:36.241Z,0.00
2017-10-21T05:23:36.664Z,0.00
2017-10-21T05:24:37.095Z,0.00
2017-10-21T05:25:37.531Z,0.00
2017-10-21T05:26:37.957Z,0.00
2017-10-21T05:27:38.383Z,0.00
2017-10-21T05:28:38.814Z,0.00
2017-10-21T05:29:39.249Z,0.00
2017-10-21T05:30:39.691Z,0.00
2017-10-21T05:31:40.100Z,0.00
2017-10-21T05:32:40.546Z,0.00
2017-10-21T05:33:40.967Z,0.00
2017-10-21T05:34:41.391Z,0.00
2017-10-21T05:35:41.825Z,0.00
2017-10-21T05:36:42.252Z,0.00
2017-10-21T05:37:42.685Z,0.00
2017-10-21T05:38:43.112Z,0.00
2017-10-21T05:39:43.536Z,0.00
2017-10-21T05:40:43.966Z,0.00
2017-10-21T05:41:44.397Z,0.00
2017-10-21T05:42:44.824Z,5.63
2017-10-21T05:43:45.260Z,5.63
2017-10-21T05:44:45.681Z,5.63
2017-10-21T05:45:46.112Z,5.63
2017-10-21T05:46:46.543Z,5.63
2017-10-21T05:47:46.974Z,5.63
2017-10-21T05:48:47.418Z,5.63
2017-10-21T05:49:47.828Z,5.63
2017-10-21T05:50:48.263Z,5.63
2017-10-21T05:51:48.699Z,5.63
2017-10-21T05:52:49.124Z,5.63
2017-10-21T05:53:49.546Z,11.25
2017-10-21T05:54:49.980Z,11.25
2017-10-21T05:55:50.405Z,11.25
2017-10-21T05:56:50.837Z,11.25
2017-10-21T05:57:51.265Z,11.25
2017-10-21T05:58:51.701Z,11.25
2017-10-21T05:59:52.129Z,11.25
2017-10-21T06:00:52.551Z,16.88
2017-10-21T06:01:52.984Z,16.88
2017-10-21T06:02:53.416Z,16.88
2017-10-21T06:03:53.857Z,16.88
2017-10-21T06:04:54.290Z,16.88
2017-10-21T06:05:54.704Z,16.88
2017-10-21T06:06:55.133Z,16.88
2017-10-21T06:07:55.562Z,16.88
2017-10-21T06:08:55.987Z,16.88
2017-10-21T06:09:56.421Z,16.88
2017-10-21T06:10:56.856Z,16.88
2017-10-21T06:11:57.280Z,16.88
2017-10-21T06:12:57.725Z,16.88
2017-10-21T06:13:58.140Z,22.50
2017-10-21T06:14:58.564Z,28.13
2017-10-21T06:15:58.997Z,33.75
2017-10-21T06:16:59.434Z,39.38
2017-10-21T06:17:59.855Z,45.00
2017-10-21T06:19:00.290Z,45.00
2017-10-21T06:20:00.722Z,50.63
2017-10-21T06:21:01.146Z,50.63
2017-10-21T06:22:01.574Z,56.25
2017-10-21T06:23:02.010Z,56.25
2017-10-21T06:24:02.435Z,56.25
2017-10-21T06:25:02.888Z,56.25
2017-10-21T06:26:03.289Z,56.25
2017-10-21T06:27:03.725Z,56.25
2017-10-21T06:28:04.153Z,50.63
2017-10-21T06:29:04.584Z,50.63
2017-10-21T06:30:05.011Z,45.00
2017-10-21T06:31:05.456Z,45.00
2017-10-21T06:32:05.873Z,45.00
2017-10-21T06:33:06.299Z,39.38
2017-10-21T06:34:06.730Z,39.38
2017-10-21T06:35:07.168Z,39.38
2017-10-21T06:36:07.607Z,45.00
2017-10-21T06:37:08.023Z,45.00
2017-10-21T06:38:08.458Z,45.00
2017-10-21T06:39:08.880Z,50.63
2017-10-21T06:40:09.311Z,50.63
2017-10-21T06:41:09.740Z,50.63
2017-10-21T06:42:10.173Z,50.63
2017-10-21T06:43:10.605Z,50.63
2017-10-21T06:44:11.031Z,56.25
2017-10-21T06:45:11.462Z,56.25
2017-10-21T06:46:11.896Z,56.25
2017-10-21T06:47:12.319Z,56.25
2017-10-21T06:48:12.753Z,56.25
2017-10-21T06:49:13.183Z,56.25
2017-10-21T06:50:13.633Z,56.25
2017-10-21T06:51:14.041Z,56.25
2017-10-21T06:52:14.472Z,56.25
2017-10-21T06:53:14.904Z,61.88
2017-10-21T06:54:15.335Z,61.88
2017-10-21T06:55:15.765Z,61.88
2017-10-21T06:56:16.194Z,61.88
2017-10-21T06:57:16.624Z,61.88
2017-10-21T06:58:17.052Z,61.88
2017-10-21T06:59:17.489Z,67.50
2017-10-21T07:00:17.919Z,67.50
2017-10-21T07:01:18.341Z,61.88
2017-10-21T07:02:18.778Z,61.88
2017-10-21T07:03:19.201Z,67.50
2017-10-21T07:04:19.656Z,67.50
2017-10-21T07:05:20.070Z,67.50
2017-10-21T07:06:20.496Z,67.50
2017-10-21T07:07:23.560Z,67.50
2017-10-21T07:08:21.364Z,67.50
2017-10-21T07:09:21.789Z,67.50
2017-10-21T07:10:22.215Z,67.50
2017-10-21T07:11:22.650Z,67.50
2017-10-21T07:12:23.102Z,73.13
2017-10-21T07:13:23.506Z,73.13
2017-10-21T07:14:23.937Z,73.13
2017-10-21T07:15:24.371Z,67.50
2017-10-21T07:16:24.801Z,67.50
2017-10-21T07:17:25.229Z,67.50
2017-10-21T07:18:25.659Z,73.13
2017-10-21T07:19:26.098Z,73.13
2017-10-21T07:20:26.523Z,78.75
2017-10-21T07:21:26.953Z,84.38
2017-10-21T07:22:27.400Z,90.00
2017-10-21T07:23:27.819Z,95.63
2017-10-21T07:24:28.242Z,95.63
2017-10-21T07:25:28.671Z,95.63
2017-10-21T07:26:29.112Z,118.13
2017-10-21T07:27:29.564Z,129.38
2017-10-21T07:28:29.967Z,157.50
2017-10-21T07:29:30.398Z,168.75
2017-10-21T07:30:30.831Z,168.75
2017-10-21T07:31:31.257Z,180.00
2017-10-21T07:32:31.694Z,185.63
2017-10-21T07:33:32.128Z,191.25
2017-10-21T07:34:32.549Z,196.88
2017-10-21T07:35:32.979Z,196.88
2017-10-21T07:36:33.413Z,202.50
2017-10-21T07:37:33.840Z,202.50
2017-10-21T07:38:34.275Z,208.13
2017-10-21T07:39:34.702Z,219.38
2017-10-21T07:40:35.164Z,219.38
2017-10-21T07:41:35.572Z,202.50
2017-10-21T07:42:35.999Z,191.25
2017-10-21T07:43:36.439Z,174.38
2017-10-21T07:44:36.864Z,174.38
2017-10-21T07:45:37.292Z,174.38
2017-10-21T07:46:37.725Z,174.38
2017-10-21T07:47:38.181Z,180.00
2017-10-21T07:48:38.599Z,174.38
2017-10-21T07:49:39.018Z,174.38
2017-10-21T07:50:39.462Z,180.00
2017-10-21T07:51:39.894Z,180.00
2017-10-21T07:52:40.320Z,185.63
2017-10-21T07:53:40.760Z,185.63
2017-10-21T07:54:41.184Z,180.00
2017-10-21T07:55:41.615Z,180.00
2017-10-21T07:56:42.048Z,185.63
2017-10-21T07:57:42.479Z,202.50
2017-10-21T07:58:42.911Z,219.38
2017-10-21T07:59:43.352Z,236.25
2017-10-21T08:00:43.778Z,253.13
2017-10-21T08:01:44.213Z,264.38
2017-10-21T08:02:44.647Z,292.50
2017-10-21T08:03:45.076Z,309.38
2017-10-21T08:04:45.502Z,320.63
2017-10-21T08:05:45.964Z,320.63
2017-10-21T08:06:46.388Z,315.00
2017-10-21T08:07:46.813Z,303.75
2017-10-21T08:08:47.236Z,292.50
2017-10-21T08:09:47.667Z,281.25
2017-10-21T08:10:48.110Z,270.00
2017-10-21T08:11:48.533Z,264.38
2017-10-21T08:12:49.010Z,253.13
2017-10-21T08:13:49.393Z,247.50
2017-10-21T08:14:49.828Z,241.88
2017-10-21T08:15:50.264Z,236.25
2017-10-21T08:16:50.707Z,225.00
2017-10-21T08:17:51.128Z,219.38
2017-10-21T08:18:51.563Z,219.38
2017-10-21T08:19:51.995Z,213.75
2017-10-21T08:20:52.424Z,208.13
2017-10-21T08:21:52.856Z,202.50
2017-10-21T08:22:53.289Z,202.50
2017-10-21T08:23:53.725Z,196.88
2017-10-21T08:24:54.163Z,196.88
2017-10-21T08:25:54.591Z,191.25
2017-10-21T08:26:55.024Z,191.25
2017-10-21T08:27:55.453Z,191.25
2017-10-21T08:28:55.886Z,191.25
2017-10-21T08:29:56.323Z,185.63
2017-10-21T08:30:56.760Z,185.63
2017-10-21T08:31:57.196Z,185.63
2017-10-21T08:32:57.624Z,185.63
2017-10-21T08:33:58.048Z,185.63
2017-10-21T08:34:58.486Z,185.63
2017-10-21T08:35:58.918Z,185.63
2017-10-21T08:36:59.350Z,185.63
2017-10-21T08:37:59.795Z,180.00
2017-10-21T08:39:00.216Z,180.00
2017-10-21T08:40:00.649Z,180.00
2017-10-21T08:41:01.084Z,174.38
2017-10-21T08:42:01.509Z,168.75
2017-10-21T08:43:01.949Z,168.75
2017-10-21T08:44:02.387Z,163.13
2017-10-21T08:45:02.813Z,157.50
2017-10-21T08:46:03.250Z,157.50
2017-10-21T08:47:03.677Z,157.50
2017-10-21T08:48:04.109Z,157.50
2017-10-21T08:49:04.542Z,151.88
2017-10-21T08:50:04.973Z,151.88
2017-10-21T08:51:05.425Z,151.88
2017-10-21T08:52:05.844Z,151.88
2017-10-21T08:53:06.276Z,151.88
2017-10-21T08:54:06.706Z,151.88
2017-10-21T08:55:07.138Z,151.88
2017-10-21T08:56:07.568Z,151.88
2017-10-21T08:57:08.039Z,146.25
2017-10-21T08:58:08.461Z,146.25
2017-10-21T09:00:44.013Z,140.63
2017-10-21T09:01:42.459Z,140.63
2017-10-21T09:05:42.450Z,140.63
2017-10-21T09:06:11.394Z,140.63
2017-10-21T09:07:11.902Z,140.63
2017-10-21T09:08:11.609Z,140.63
2017-10-21T09:09:12.911Z,140.63
2017-10-21T09:10:15.402Z,140.63
2017-10-21T09:11:12.906Z,140.63
2017-10-21T09:12:13.305Z,140.63
2017-10-21T09:13:13.746Z,140.63
2017-10-21T09:14:14.172Z,140.63
2017-10-21T09:15:14.649Z,140.63
2017-10-21T09:16:15.055Z,140.63
2017-10-21T09:17:15.466Z,140.63
2017-10-21T09:18:15.896Z,146.25
2017-10-21T09:19:16.331Z,146.25
2017-10-21T09:20:16.759Z,151.88
2017-10-21T09:21:17.198Z,151.88
2017-10-21T09:22:17.632Z,151.88
2017-10-21T09:23:18.054Z,151.88
2017-10-21T09:24:18.491Z,151.88
2017-10-21T09:25:18.929Z,151.88
2017-10-21T09:26:19.350Z,151.88
2017-10-21T09:27:19.784Z,157.50
2017-10-21T09:28:20.212Z,163.13
2017-10-21T09:29:20.674Z,157.50
2017-10-21T09:30:21.075Z,163.13
2017-10-21T09:31:21.515Z,163.13
2017-10-21T09:32:21.971Z,163.13
2017-10-21T09:33:22.398Z,163.13
2017-10-21T09:36:19.857Z,174.38
2017-10-21T09:36:56.375Z,174.38
2017-10-21T09:40:24.125Z,174.38
2017-10-21T09:41:24.592Z,174.38
2017-10-21T09:43:20.059Z,174.38
2017-10-21T09:44:21.393Z,168.75
2017-10-21T09:46:16.200Z,168.75
2017-10-21T09:47:15.478Z,163.13
2017-10-21T09:50:42.548Z,163.13
2017-10-21T09:51:42.819Z,163.13
2017-10-21T09:52:43.236Z,163.13
2017-10-21T09:53:43.659Z,163.13
2017-10-21T09:54:44.087Z,163.13
2017-10-21T09:55:44.548Z,168.75
2017-10-21T09:56:44.974Z,174.38
2017-10-21T09:57:45.381Z,180.00
2017-10-21T09:58:45.812Z,185.63
2017-10-21T09:59:46.269Z,185.63
2017-10-21T10:00:46.722Z,185.63
2017-10-21T10:01:47.112Z,185.63
2017-10-21T10:02:47.555Z,180.00
2017-10-21T10:03:47.984Z,185.63
2017-10-21T10:04:48.411Z,185.63
2017-10-21T10:05:48.854Z,185.63
2017-10-21T10:06:49.283Z,185.63
2017-10-21T10:07:49.700Z,191.25
2017-10-21T10:08:50.132Z,196.88
2017-10-21T10:09:50.564Z,191.25
2017-10-21T10:10:50.999Z,185.63
2017-10-21T10:11:51.426Z,180.00
2017-10-21T10:12:51.863Z,180.00
2017-10-21T10:13:52.298Z,174.38
2017-10-21T10:14:52.733Z,174.38
2017-10-21T10:15:53.155Z,180.00
2017-10-21T10:16:53.594Z,185.63
2017-10-21T10:17:54.029Z,185.63
2017-10-21T10:18:54.465Z,196.88
2017-10-21T10:19:54.890Z,202.50
2017-10-21T10:20:55.321Z,208.13
2017-10-21T10:21:55.755Z,208.13
2017-10-21T10:22:56.180Z,213.75
2017-10-21T10:23:56.618Z,213.75
2017-10-21T10:24:57.045Z,213.75
2017-10-21T10:25:57.481Z,213.75
2017-10-21T10:26:57.915Z,208.13
2017-10-21T10:27:58.356Z,208.13
2017-10-21T10:28:58.774Z,202.50
2017-10-21T10:29:59.209Z,191.25
2017-10-21T10:30:59.640Z,185.63
2017-10-21T10:32:00.073Z,196.88
2017-10-21T10:33:00.509Z,196.88
2017-10-21T10:34:00.938Z,196.88
2017-10-21T10:35:01.375Z,202.50
2017-10-21T10:36:01.799Z,196.88
2017-10-21T10:37:02.234Z,202.50
2017-10-21T10:38:02.695Z,213.75
2017-10-21T10:39:03.101Z,213.75
2017-10-21T10:40:03.531Z,225.00
2017-10-21T10:41:03.961Z,236.25
2017-10-21T10:42:04.396Z,241.88
2017-10-21T10:43:04.828Z,247.50
2017-10-21T10:44:05.256Z,241.88
2017-10-21T10:45:05.699Z,241.88
2017-10-21T10:46:06.125Z,236.25
2017-10-21T10:47:06.554Z,230.63
2017-10-21T10:48:06.999Z,225.00
2017-10-21T10:49:07.419Z,213.75
2017-10-21T10:50:07.855Z,213.75
2017-10-21T10:51:08.306Z,208.13
2017-10-21T10:52:08.720Z,202.50
2017-10-21T10:53:09.156Z,208.13
2017-10-21T10:54:09.583Z,202.50
2017-10-21T10:55:10.021Z,208.13
2017-10-21T10:56:10.447Z,213.75
2017-10-21T10:57:10.891Z,213.75
2017-10-21T10:58:11.316Z,213.75
2017-10-21T10:59:11.743Z,213.75
2017-10-21T11:00:12.176Z,219.38
2017-10-21T11:01:12.610Z,219.38
2017-10-21T11:02:13.044Z,208.13
2017-10-21T11:03:13.518Z,225.00
2017-10-21T11:04:13.917Z,241.88
2017-10-21T11:05:14.370Z,236.25
2017-10-21T11:06:14.789Z,225.00
2017-10-21T11:07:15.207Z,230.63
2017-10-21T11:08:15.666Z,241.88
2017-10-21T11:09:16.090Z,241.88
2017-10-21T11:10:16.508Z,230.63
2017-10-21T11:11:16.939Z,230.63
2017-10-21T11:12:17.377Z,230.63
2017-10-21T11:13:17.823Z,236.25
2017-10-21T11:14:18.254Z,230.63
2017-10-21T11:15:18.701Z,225.00
2017-10-21T11:16:19.123Z,225.00
2017-10-21T11:17:19.561Z,230.63
2017-10-21T11:18:19.976Z,225.00
2017-10-21T11:19:20.423Z,225.00
2017-10-21T11:20:20.844Z,225.00
2017-10-21T11:21:21.299Z,230.63
2017-10-21T11:22:21.717Z,230.63
2017-10-21T11:23:22.139Z,230.63
2017-10-21T11:24:22.579Z,225.00
2017-10-21T11:25:23.005Z,219.38
2017-10-21T11:26:23.439Z,208.13
2017-10-21T11:27:23.868Z,202.50
2017-10-21T11:28:24.352Z,202.50
2017-10-21T11:29:24.737Z,196.88
2017-10-21T11:30:25.169Z,191.25
2017-10-21T11:31:25.601Z,185.63
2017-10-21T11:32:26.036Z,185.63
2017-10-21T11:33:26.479Z,191.25
2017-10-21T11:34:26.904Z,191.25
2017-10-21T11:35:27.335Z,196.88
2017-10-21T11:36:27.768Z,196.88
2017-10-21T11:37:28.202Z,191.25
2017-10-21T11:38:28.631Z,191.25
2017-10-21T11:39:29.067Z,185.63
2017-10-21T11:40:29.514Z,185.63
2017-10-21T11:41:29.933Z,185.63
2017-10-21T11:42:30.372Z,185.63
2017-10-21T11:43:30.799Z,180.00
2017-10-21T11:44:31.238Z,174.38
2017-10-21T11:45:31.673Z,174.38
2017-10-21T11:46:32.102Z,174.38
2017-10-21T11:47:32.535Z,180.00
2017-10-21T11:48:32.971Z,180.00
2017-10-21T11:49:33.393Z,180.00
2017-10-21T11:50:33.836Z,180.00
2017-10-21T11:51:34.277Z,185.63
2017-10-21T11:52:34.692Z,185.63
2017-10-21T11:53:35.129Z,185.63
2017-10-21T11:54:35.562Z,191.25
2017-10-21T11:55:35.988Z,196.88
2017-10-21T11:56:36.431Z,208.13
2017-10-21T11:57:36.857Z,225.00
2017-10-21T11:58:37.291Z,236.25
2017-10-21T11:59:37.735Z,241.88
2017-10-21T12:00:38.157Z,247.50
2017-10-21T12:01:38.594Z,253.13
2017-10-21T12:02:39.023Z,258.75
2017-10-21T12:03:39.455Z,264.38
2017-10-21T12:04:39.889Z,275.63
2017-10-21T12:05:40.339Z,281.25
2017-10-21T12:06:40.788Z,286.88
2017-10-21T12:07:41.186Z,281.25
2017-10-21T12:08:41.617Z,281.25
2017-10-21T12:09:42.053Z,281.25
2017-10-21T12:10:42.504Z,292.50
2017-10-21T12:11:42.935Z,298.13
2017-10-21T12:12:43.353Z,286.88
2017-10-21T12:13:43.792Z,270.00
2017-10-21T12:14:44.232Z,258.75
2017-10-21T12:15:44.694Z,253.13
2017-10-21T12:16:45.085Z,241.88
2017-10-21T12:17:45.526Z,236.25
2017-10-21T12:18:45.954Z,236.25
2017-10-21T12:19:46.383Z,236.25
2017-10-21T12:20:46.818Z,219.38
2017-10-21T12:21:47.251Z,213.75
2017-10-21T12:22:47.684Z,202.50
2017-10-21T12:23:48.122Z,196.88
2017-10-21T12:24:48.553Z,185.63
2017-10-21T12:25:48.992Z,174.38
2017-10-21T12:26:49.421Z,174.38
2017-10-21T12:27:49.852Z,174.38
2017-10-21T12:28:50.280Z,174.38
2017-10-21T12:29:50.725Z,180.00
2017-10-21T12:30:51.148Z,185.63
2017-10-21T12:31:51.576Z,185.63
2017-10-21T12:32:52.011Z,180.00
2017-10-21T12:33:52.449Z,168.75
2017-10-21T12:34:52.877Z,163.13
2017-10-21T12:35:53.308Z,163.13
2017-10-21T12:36:53.745Z,163.13
2017-10-21T12:37:54.176Z,163.13
2017-10-21T12:38:54.606Z,168.75
2017-10-21T12:39:55.037Z,168.75
2017-10-21T12:40:55.471Z,163.13
2017-10-21T12:41:55.911Z,163.13
2017-10-21T12:42:56.339Z,157.50
2017-10-21T12:43:56.767Z,151.88
2017-10-21T12:44:57.202Z,146.25
2017-10-21T12:45:57.635Z,146.25
2017-10-21T12:46:58.070Z,140.63
2017-10-21T12:47:58.505Z,135.00
2017-10-21T12:48:58.937Z,135.00
2017-10-21T12:49:59.371Z,135.00
2017-10-21T12:50:59.801Z,140.63
2017-10-21T12:52:00.231Z,140.63
2017-10-21T12:53:00.667Z,140.63
2017-10-21T12:54:01.098Z,135.00
2017-10-21T12:55:01.542Z,123.75
2017-10-21T12:56:01.961Z,118.13
2017-10-21T12:57:02.399Z,112.50
2017-10-21T12:58:02.827Z,112.50
2017-10-21T12:59:03.275Z,106.88
2017-10-21T13:00:03.696Z,106.88
2017-10-21T13:01:04.122Z,106.88
2017-10-21T13:02:04.559Z,106.88
2017-10-21T13:03:04.989Z,106.88
2017-10-21T13:04:05.429Z,112.50
2017-10-21T13:05:05.860Z,112.50
2017-10-21T13:06:06.298Z,112.50
2017-10-21T13:07:06.719Z,112.50
2017-10-21T13:08:07.153Z,112.50
2017-10-21T13:09:07.586Z,112.50
2017-10-21T13:10:08.034Z,106.88
2017-10-21T13:11:08.476Z,106.88